Time;durP1;ratioP1;P1;durP2;ratioP2;P2;SDS_P1;SDS_P2;PMS_P1;PMS_P2;Temp;Humidity;BMP_temperature;BMP_pressure;BME280_temperature;BME280_humidity;BME280_pressure;Samples;Min_cycle;Max_cycle;Signal;HPM_P1;HPM_P2
2021/09/15 00:01:02;;;;;;;6.90;6.20;;;21.20;99.90;;;;;;5074720;28;20023;-79
2021/09/15 00:03:28;;;;;;;7.75;7.03;;;21.20;99.90;;;;;;5080267;28;20032;-78
2021/09/15 00:05:54;;;;;;;7.05;6.35;;;21.10;99.90;;;;;;5095848;28;20025;-78
2021/09/15 00:08:19;;;;;;;8.05;6.38;;;21.00;99.90;;;;;;5058806;28;20052;-78
2021/09/15 00:10:46;;;;;;;7.63;5.93;;;21.00;99.90;;;;;;5056903;28;20025;-79
2021/09/15 00:13:12;;;;;;;9.38;6.60;;;20.90;99.90;;;;;;5058495;28;20075;-78
2021/09/15 00:15:37;;;;;;;6.82;6.18;;;20.90;99.90;;;;;;5058036;28;20021;-78
2021/09/15 00:18:03;;;;;;;8.18;7.03;;;20.90;99.90;;;;;;5092111;28;20025;-78
2021/09/15 00:20:29;;;;;;;9.20;6.85;;;20.90;99.90;;;;;;5057694;28;20067;-77
2021/09/15 00:22:55;;;;;;;7.57;6.75;;;20.80;99.90;;;;;;5052626;28;20400;-78
2021/09/15 00:25:21;;;;;;;7.38;6.57;;;20.80;99.90;;;;;;5056428;28;20021;-78
2021/09/15 00:27:46;;;;;;;8.80;6.60;;;20.80;99.90;;;;;;5052192;28;20025;-77
2021/09/15 00:30:12;;;;;;;8.90;7.25;;;20.80;99.90;;;;;;5054624;28;20017;-78
2021/09/15 00:32:38;;;;;;;8.15;7.35;;;21.00;99.90;;;;;;5056310;28;20029;-78
2021/09/15 00:35:06;;;;;;;7.55;6.70;;;20.90;99.90;;;;;;5056077;28;20032;-80
2021/09/15 00:37:32;;;;;;;7.30;6.70;;;20.90;99.90;;;;;;5055988;28;20027;-78
2021/09/15 00:39:58;;;;;;;7.43;6.63;;;20.90;99.90;;;;;;5059147;28;20052;-78
2021/09/15 00:42:23;;;;;;;7.93;7.07;;;20.90;99.90;;;;;;5060035;28;20112;-78
2021/09/15 00:44:49;;;;;;;7.95;7.15;;;20.80;99.90;;;;;;5059596;28;20129;-79
2021/09/15 00:47:14;;;;;;;7.88;7.10;;;20.70;99.90;;;;;;5060730;28;20122;-79
2021/09/15 00:49:40;;;;;;;7.72;6.57;;;20.70;99.90;;;;;;5058063;28;20583;-78
2021/09/15 00:52:05;;;;;;;8.88;7.47;;;20.70;99.90;;;;;;5059046;28;20029;-79
2021/09/15 00:54:31;;;;;;;10.20;7.28;;;20.70;99.90;;;;;;5059661;28;20029;-78
2021/09/15 00:56:57;;;;;;;7.90;7.00;;;20.60;99.90;;;;;;5057475;28;20111;-78
2021/09/15 00:59:22;;;;;;;7.28;6.57;;;20.60;99.90;;;;;;5071070;28;20111;-77
2021/09/15 01:01:48;;;;;;;8.75;6.72;;;20.60;99.90;;;;;;5058256;28;20477;-78
2021/09/15 01:04:13;;;;;;;7.82;7.13;;;20.60;99.90;;;;;;5057063;28;20447;-79
2021/09/15 01:06:40;;;;;;;9.77;6.50;;;20.50;99.90;;;;;;5056756;28;20017;-78
2021/09/15 01:09:06;;;;;;;7.05;6.38;;;20.50;99.90;;;;;;5058054;28;20017;-78
2021/09/15 01:11:34;;;;;;;8.13;6.10;;;20.50;99.90;;;;;;5059743;28;20400;-79
2021/09/15 01:14:01;;;;;;;11.68;7.25;;;20.60;99.90;;;;;;5056154;28;20108;-78
2021/09/15 01:16:26;;;;;;;7.95;7.20;;;20.60;99.90;;;;;;5059331;28;20040;-78
2021/09/15 01:18:52;;;;;;;7.60;6.80;;;20.50;99.90;;;;;;5059134;28;20029;-78
2021/09/15 01:21:17;;;;;;;7.25;6.57;;;20.50;99.90;;;;;;5058465;28;20025;-77
2021/09/15 01:23:43;;;;;;;7.05;6.35;;;20.50;99.90;;;;;;5058627;28;20029;-78
2021/09/15 01:26:08;;;;;;;9.25;6.57;;;20.60;99.90;;;;;;5054322;28;20571;-78
2021/09/15 01:28:34;;;;;;;7.78;6.60;;;20.50;99.90;;;;;;5057481;28;20104;-78
2021/09/15 01:31:00;;;;;;;7.50;6.70;;;20.50;99.90;;;;;;5090899;28;20021;-78
2021/09/15 01:33:25;;;;;;;7.25;6.55;;;20.50;99.90;;;;;;5058544;28;20018;-78
2021/09/15 01:35:51;;;;;;;7.82;6.70;;;20.50;99.90;;;;;;5058323;28;20036;-78
2021/09/15 01:38:17;;;;;;;8.40;6.10;;;20.50;99.90;;;;;;5059471;28;20031;-78
2021/09/15 01:40:42;;;;;;;10.13;7.07;;;20.40;99.90;;;;;;5058576;28;20057;-78
2021/09/15 01:43:08;;;;;;;8.07;7.28;;;20.40;99.90;;;;;;5052697;28;20021;-78
2021/09/15 01:45:34;;;;;;;9.00;7.50;;;20.40;99.90;;;;;;5053152;28;20025;-77
2021/09/15 01:48:00;;;;;;;8.32;7.13;;;20.40;99.90;;;;;;5051952;28;20017;-78
2021/09/15 01:50:25;;;;;;;8.70;6.90;;;20.50;99.90;;;;;;5085108;28;20025;-78
2021/09/15 01:52:51;;;;;;;7.63;6.65;;;20.50;99.90;;;;;;5052761;28;20033;-79
2021/09/15 01:55:25;;;;;;;8.38;7.35;;;20.50;99.90;;;;;;5052372;28;20025;-78
2021/09/15 01:57:51;;;;;;;7.15;6.45;;;20.60;99.90;;;;;;5059857;28;20484;-78
2021/09/15 02:00:17;;;;;;;7.95;6.57;;;20.70;99.90;;;;;;5064886;28;20403;-77
2021/09/15 02:02:44;;;;;;;7.30;6.60;;;20.70;99.90;;;;;;5073416;28;20027;-78
2021/09/15 02:05:10;;;;;;;6.65;5.93;;;20.60;99.90;;;;;;5074849;28;20028;-78
2021/09/15 02:07:36;;;;;;;8.05;6.50;;;20.70;99.90;;;;;;5078205;28;20023;-78
2021/09/15 02:10:04;;;;;;;8.45;6.07;;;20.60;99.90;;;;;;5079274;28;20044;-79
2021/09/15 02:12:29;;;;;;;10.68;7.28;;;20.50;99.90;;;;;;5078915;28;20632;-78
2021/09/15 02:14:55;;;;;;;7.50;5.97;;;20.40;99.90;;;;;;5076527;28;20054;-78
2021/09/15 02:17:20;;;;;;;7.38;5.70;;;20.40;99.90;;;;;;5074916;28;20027;-78
2021/09/15 02:19:46;;;;;;;6.97;6.20;;;20.40;99.90;;;;;;5075048;28;20395;-78
2021/09/15 02:22:11;;;;;;;8.57;6.35;;;20.40;99.90;;;;;;5071838;28;20024;-78
2021/09/15 02:24:37;;;;;;;7.95;5.88;;;20.30;99.90;;;;;;5076328;28;20040;-79
2021/09/15 02:27:02;;;;;;;5.90;5.38;;;20.30;99.90;;;;;;5066882;28;20032;-78
2021/09/15 02:29:28;;;;;;;6.15;5.55;;;20.30;99.90;;;;;;5064965;28;20031;-78
2021/09/15 02:31:53;;;;;;;6.55;5.95;;;20.30;99.90;;;;;;5072254;28;20024;-78
2021/09/15 02:34:19;;;;;;;6.32;5.72;;;20.40;99.90;;;;;;5075169;28;20027;-78
2021/09/15 02:36:45;;;;;;;6.68;6.07;;;20.40;99.90;;;;;;5075169;28;20111;-77
2021/09/15 02:39:10;;;;;;;6.53;5.93;;;20.30;99.90;;;;;;5073842;28;20078;-77
2021/09/15 02:41:36;;;;;;;6.75;6.15;;;20.30;99.90;;;;;;5079502;28;20063;-78
2021/09/15 02:44:01;;;;;;;6.72;6.03;;;20.20;99.90;;;;;;5077826;28;20082;-78
2021/09/15 02:46:27;;;;;;;6.85;5.88;;;20.20;99.90;;;;;;5078642;28;20033;-77
2021/09/15 02:48:52;;;;;;;6.68;5.85;;;20.20;99.90;;;;;;5075017;28;20025;-77
2021/09/15 02:51:18;;;;;;;6.93;5.80;;;20.20;99.90;;;;;;5077841;28;20020;-78
2021/09/15 02:53:43;;;;;;;11.85;5.63;;;20.20;99.90;;;;;;5080302;28;20016;-78
2021/09/15 02:56:09;;;;;;;9.45;6.20;;;20.20;99.90;;;;;;5079427;28;20028;-79
2021/09/15 02:58:34;;;;;;;6.45;5.82;;;20.20;99.90;;;;;;5081180;28;20024;-78
2021/09/15 03:01:00;;;;;;;8.05;5.72;;;20.20;99.90;;;;;;5080439;28;20028;-78
2021/09/15 03:03:25;;;;;;;6.03;5.53;;;20.20;99.90;;;;;;5080201;28;20395;-77
2021/09/15 03:05:51;;;;;;;7.95;5.95;;;20.20;99.90;;;;;;5074361;28;20038;-77
2021/09/15 03:08:16;;;;;;;5.70;5.13;;;20.20;99.90;;;;;;5080420;28;20092;-78
2021/09/15 03:10:42;;;;;;;5.43;4.93;;;20.30;99.90;;;;;;5081269;28;20028;-78
2021/09/15 03:13:08;;;;;;;6.95;4.90;;;20.30;99.90;;;;;;5081332;28;20063;-78
2021/09/15 03:15:33;;;;;;;7.13;5.50;;;20.30;99.90;;;;;;5081586;28;20024;-78
2021/09/15 03:17:59;;;;;;;5.70;5.18;;;20.30;99.90;;;;;;5075904;28;20024;-78
2021/09/15 03:20:24;;;;;;;6.50;4.72;;;20.30;99.90;;;;;;5080777;28;20103;-78
2021/09/15 03:22:50;;;;;;;6.55;5.43;;;20.40;99.90;;;;;;5083304;28;20048;-78
2021/09/15 03:25:16;;;;;;;7.45;4.90;;;20.40;99.90;;;;;;5081560;28;20035;-78
2021/09/15 03:27:41;;;;;;;6.93;5.85;;;20.40;99.90;;;;;;5062068;28;20064;-78
2021/09/15 03:30:08;;;;;;;6.90;6.20;;;20.50;99.90;;;;;;5065355;28;20043;-79
2021/09/15 03:32:33;;;;;;;7.82;5.57;;;20.60;99.90;;;;;;5078945;28;20025;-78
2021/09/15 03:34:59;;;;;;;7.18;5.70;;;20.60;99.90;;;;;;5081077;28;20031;-79
2021/09/15 03:37:24;;;;;;;6.43;5.50;;;20.60;99.90;;;;;;5080730;28;20024;-79
2021/09/15 03:39:50;;;;;;;6.28;5.38;;;20.50;99.90;;;;;;5078038;28;20031;-78
2021/09/15 03:42:16;;;;;;;7.55;5.68;;;20.50;99.90;;;;;;5078345;28;20032;-78
2021/09/15 03:44:41;;;;;;;6.63;5.35;;;20.50;99.90;;;;;;5081491;28;20024;-77
2021/09/15 03:47:07;;;;;;;6.65;5.45;;;20.40;99.90;;;;;;5081740;28;20076;-78
2021/09/15 03:49:32;;;;;;;8.88;5.88;;;20.30;99.90;;;;;;5077048;28;20020;-78
2021/09/15 03:51:58;;;;;;;8.63;5.60;;;20.30;99.90;;;;;;5074800;28;20024;-78
2021/09/15 03:54:23;;;;;;;6.53;5.80;;;20.40;99.90;;;;;;5074167;28;20021;-78
2021/09/15 03:56:49;;;;;;;7.85;6.15;;;20.40;99.90;;;;;;5074390;28;20089;-77
2021/09/15 03:59:14;;;;;;;8.30;6.47;;;20.40;99.90;;;;;;5055768;28;20044;-77
2021/09/15 04:01:40;;;;;;;8.48;5.50;;;20.30;99.90;;;;;;5055069;28;20044;-78
2021/09/15 04:04:05;;;;;;;8.38;6.10;;;20.20;99.90;;;;;;5056248;28;20032;-78
2021/09/15 04:06:31;;;;;;;6.22;5.63;;;20.10;99.90;;;;;;5059425;28;20039;-79
2021/09/15 04:08:56;;;;;;;8.55;6.05;;;20.10;99.90;;;;;;5057115;28;20029;-78
2021/09/15 04:11:23;;;;;;;7.28;6.07;;;20.20;99.90;;;;;;5056121;28;20025;-78
2021/09/15 04:13:49;;;;;;;8.88;6.63;;;20.20;99.90;;;;;;5058169;28;20097;-79
2021/09/15 04:16:14;;;;;;;7.22;5.90;;;20.10;99.90;;;;;;5059562;28;20357;-78
2021/09/15 04:18:40;;;;;;;7.57;6.82;;;20.00;99.90;;;;;;5058032;28;20029;-78
2021/09/15 04:21:05;;;;;;;7.25;6.55;;;19.90;99.90;;;;;;5059559;28;20404;-78
2021/09/15 04:23:37;;;;;;;9.55;7.28;;;19.90;99.90;;;;;;5057742;28;20064;-78
2021/09/15 04:31:34;;;;;;;8.02;7.15;;;19.90;99.90;;;;;;5075014;28;20034;-79
2021/09/15 04:34:01;;;;;;;8.82;7.00;;;19.90;99.90;;;;;;5081581;28;20413;-77
2021/09/15 04:36:28;;;;;;;8.70;7.03;;;19.80;99.90;;;;;;5084755;28;20545;-79
2021/09/15 04:38:53;;;;;;;8.02;7.22;;;19.80;99.90;;;;;;5082761;28;20040;-79
2021/09/15 04:41:19;;;;;;;8.90;6.97;;;19.90;99.90;;;;;;5084134;28;20024;-79
2021/09/15 04:43:45;;;;;;;10.00;7.57;;;19.90;99.90;;;;;;5082405;28;20024;-79
2021/09/15 04:46:11;;;;;;;7.68;6.97;;;19.90;99.90;;;;;;5084068;28;20059;-79
2021/09/15 04:48:38;;;;;;;6.97;6.30;;;19.90;99.90;;;;;;5080021;28;20530;-78
2021/09/15 04:51:04;;;;;;;9.70;7.18;;;19.90;99.90;;;;;;5078001;28;20016;-79
2021/09/15 04:53:30;;;;;;;8.63;6.63;;;19.80;99.90;;;;;;5077051;28;20024;-79
2021/09/15 04:55:55;;;;;;;11.52;7.50;;;19.90;99.90;;;;;;5078059;28;20267;-79
2021/09/15 04:58:21;;;;;;;8.48;7.70;;;19.90;99.90;;;;;;5078948;28;20055;-78
2021/09/15 05:00:46;;;;;;;8.27;7.47;;;19.90;99.90;;;;;;5081035;28;20021;-79
2021/09/15 05:03:12;;;;;;;8.18;7.38;;;19.90;99.90;;;;;;5080987;28;20028;-77
2021/09/15 05:05:37;;;;;;;10.13;7.60;;;19.90;99.90;;;;;;5080214;28;20032;-78
2021/09/15 05:08:03;;;;;;;8.45;7.60;;;19.90;99.90;;;;;;5081632;28;20043;-79
2021/09/15 05:10:29;;;;;;;12.88;7.28;;;19.90;99.90;;;;;;5080147;28;20099;-79
2021/09/15 05:12:56;;;;;;;9.30;7.30;;;19.90;99.90;;;;;;5082284;28;20020;-79
2021/09/15 05:15:23;;;;;;;6.20;5.63;;;19.90;99.90;;;;;;5079474;28;20368;-78
2021/09/15 05:17:49;;;;;;;6.50;5.95;;;19.80;99.90;;;;;;5078901;28;20029;-79
2021/09/15 05:20:17;;;;;;;9.93;7.20;;;19.80;99.90;;;;;;5080814;28;20025;-78
2021/09/15 05:22:47;;;;;;;8.73;6.57;;;19.90;99.90;;;;;;5078268;28;20036;-78
2021/09/15 05:25:14;;;;;;;7.87;5.97;;;19.90;99.90;;;;;;5077987;28;20525;-79
2021/09/15 05:27:40;;;;;;;9.88;6.88;;;19.80;99.90;;;;;;5059966;28;20299;-78
2021/09/15 05:30:06;;;;;;;7.20;6.32;;;19.80;99.90;;;;;;5060021;28;20024;-80
2021/09/15 05:32:32;;;;;;;8.13;5.90;;;19.80;99.90;;;;;;5076618;28;20036;-79
2021/09/15 05:34:58;;;;;;;8.55;6.57;;;19.80;99.90;;;;;;5079873;28;20063;-79
2021/09/15 05:37:23;;;;;;;7.72;6.13;;;19.80;99.90;;;;;;5078906;28;20017;-79
2021/09/15 05:39:49;;;;;;;6.07;4.68;;;19.80;99.90;;;;;;5078527;28;20035;-78
2021/09/15 05:42:14;;;;;;;6.32;5.45;;;19.80;99.90;;;;;;5083660;28;20044;-79
2021/09/15 05:44:40;;;;;;;7.28;6.20;;;19.80;99.90;;;;;;5086869;28;20032;-79
2021/09/15 05:47:05;;;;;;;6.25;5.10;;;19.80;99.90;;;;;;5086966;28;20024;-79
2021/09/15 05:49:31;;;;;;;11.48;6.55;;;19.70;99.90;;;;;;5085874;28;20422;-79
2021/09/15 05:51:57;;;;;;;5.93;5.40;;;19.80;99.90;;;;;;5083104;28;20025;-80
2021/09/15 05:54:22;;;;;;;8.50;5.07;;;19.80;99.90;;;;;;5081520;28;20025;-78
2021/09/15 05:56:48;;;;;;;9.45;5.60;;;19.90;99.90;;;;;;5083483;28;20084;-78
2021/09/15 05:59:13;;;;;;;7.38;5.38;;;19.80;99.90;;;;;;5082924;28;20100;-79
2021/09/15 06:01:39;;;;;;;7.63;5.75;;;19.80;99.90;;;;;;5085709;28;20059;-79
2021/09/15 06:04:04;;;;;;;7.82;5.47;;;19.80;99.90;;;;;;5086513;28;20040;-78
2021/09/15 06:06:30;;;;;;;8.32;5.38;;;19.80;99.90;;;;;;5079501;28;20046;-79
2021/09/15 06:08:55;;;;;;;6.30;4.75;;;19.70;99.90;;;;;;5082187;28;20095;-79
2021/09/15 06:11:21;;;;;;;6.88;5.50;;;19.70;99.90;;;;;;5085438;28;20028;-79
2021/09/15 06:13:48;;;;;;;5.53;4.97;;;19.70;99.90;;;;;;5082778;28;20551;-78
2021/09/15 06:16:14;;;;;;;5.70;5.13;;;19.70;99.90;;;;;;5081910;28;20021;-78
2021/09/15 06:18:39;;;;;;;5.95;4.65;;;19.70;99.90;;;;;;5094101;28;20102;-78
2021/09/15 06:21:05;;;;;;;5.63;5.10;;;19.70;99.90;;;;;;5093757;28;20035;-78
2021/09/15 06:23:31;;;;;;;10.25;5.35;;;19.70;99.90;;;;;;5094591;28;20055;-78
2021/09/15 06:25:59;;;;;;;10.15;5.70;;;19.70;99.90;;;;;;5094025;28;20035;-77
2021/09/15 06:28:26;;;;;;;8.40;5.68;;;19.70;99.90;;;;;;5077348;28;20036;-78
2021/09/15 06:30:51;;;;;;;6.90;5.53;;;19.80;99.90;;;;;;5082652;28;20068;-78
2021/09/15 06:33:17;;;;;;;10.30;5.35;;;19.80;99.90;;;;;;5083022;28;20024;-78
2021/09/15 06:35:43;;;;;;;7.50;5.20;;;19.80;99.90;;;;;;5080324;28;20039;-79
2021/09/15 06:38:12;;;;;;;9.85;5.85;;;19.80;99.90;;;;;;5082589;28;20025;-80
2021/09/15 06:40:39;;;;;;;5.43;4.90;;;19.80;99.90;;;;;;5060704;28;20481;-76
2021/09/15 06:43:04;;;;;;;6.35;4.88;;;19.70;99.90;;;;;;5054321;28;20048;-76
2021/09/15 06:45:30;;;;;;;6.65;5.63;;;19.70;99.90;;;;;;5054069;28;20500;-76
2021/09/15 06:47:55;;;;;;;8.45;4.82;;;19.80;99.90;;;;;;5054060;28;20481;-76
2021/09/15 06:50:21;;;;;;;5.55;5.05;;;19.80;99.90;;;;;;5053921;28;20579;-76
2021/09/15 06:52:46;;;;;;;7.13;4.93;;;19.80;99.90;;;;;;5053686;28;20044;-76
2021/09/15 06:55:13;;;;;;;6.57;5.65;;;19.90;99.90;;;;;;5054280;28;20021;-77
2021/09/15 06:57:38;;;;;;;8.65;4.88;;;19.90;99.90;;;;;;5046569;28;20043;-76
2021/09/15 07:00:06;;;;;;;8.80;5.20;;;19.90;99.90;;;;;;5041027;28;20432;-77
2021/09/15 07:02:31;;;;;;;7.60;5.82;;;20.00;99.90;;;;;;5052091;28;20040;-76
2021/09/15 07:04:58;;;;;;;13.93;11.80;;;19.90;99.90;;;;;;5086299;28;20025;-76
2021/09/15 07:07:23;;;;;;;9.55;6.20;;;19.90;99.90;;;;;;5052349;28;20021;-77
2021/09/15 07:09:49;;;;;;;6.25;4.90;;;19.90;99.90;;;;;;5051905;28;20120;-75
2021/09/15 07:12:14;;;;;;;6.97;5.30;;;19.90;99.90;;;;;;5053855;28;20025;-78
2021/09/15 07:14:40;;;;;;;6.57;4.95;;;19.90;99.90;;;;;;5055861;28;20033;-77
2021/09/15 07:17:06;;;;;;;10.50;5.93;;;20.00;99.90;;;;;;5064154;28;20042;-77
2021/09/15 07:19:31;;;;;;;10.27;5.85;;;20.00;99.90;;;;;;5074201;28;20024;-78
2021/09/15 07:21:57;;;;;;;7.18;5.68;;;19.90;99.90;;;;;;5074578;28;20097;-79
2021/09/15 07:24:22;;;;;;;8.52;5.80;;;19.90;99.90;;;;;;5075237;28;20087;-80
2021/09/15 07:26:48;;;;;;;7.72;5.60;;;19.90;99.90;;;;;;5070491;28;20036;-79
2021/09/15 07:29:14;;;;;;;7.82;5.45;;;19.90;99.90;;;;;;5054045;28;20025;-78
2021/09/15 07:31:39;;;;;;;10.32;5.72;;;19.90;99.90;;;;;;5054253;28;20025;-77
2021/09/15 07:34:05;;;;;;;8.90;5.75;;;20.00;99.90;;;;;;5052644;28;20403;-77
2021/09/15 07:36:32;;;;;;;8.23;5.47;;;19.90;99.90;;;;;;5054483;28;20064;-78
2021/09/15 07:38:57;;;;;;;6.30;4.90;;;20.00;99.90;;;;;;5054891;28;20021;-78
2021/09/15 07:41:23;;;;;;;8.32;5.68;;;20.00;99.90;;;;;;5052895;28;20400;-77
2021/09/15 07:43:48;;;;;;;11.75;6.72;;;20.00;99.90;;;;;;5055492;28;20032;-78
2021/09/15 07:46:14;;;;;;;11.07;6.93;;;20.00;99.90;;;;;;5054776;28;20021;-78
2021/09/15 07:48:40;;;;;;;6.93;5.30;;;19.90;99.90;;;;;;5054302;28;20496;-78
2021/09/15 07:51:06;;;;;;;6.32;3.88;;;19.90;99.90;;;;;;5055051;28;20032;-78
2021/09/15 07:53:31;;;;;;;4.57;3.42;;;20.00;99.90;;;;;;5055408;28;20389;-78
2021/09/15 07:55:57;;;;;;;6.63;4.00;;;20.10;99.90;;;;;;5054051;28;20029;-78
2021/09/15 07:58:23;;;;;;;4.68;3.85;;;20.10;99.90;;;;;;5054474;28;20480;-79
2021/09/15 08:00:49;;;;;;;6.28;3.45;;;20.10;99.90;;;;;;5056483;28;20574;-78
2021/09/15 08:03:15;;;;;;;8.88;3.83;;;20.10;99.90;;;;;;5057161;28;20036;-78
2021/09/15 08:05:40;;;;;;;4.82;3.35;;;20.20;99.90;;;;;;5054337;28;20048;-78
2021/09/15 08:08:06;;;;;;;9.02;3.45;;;20.20;99.90;;;;;;5054343;28;20461;-78
2021/09/15 08:10:33;;;;;;;7.68;3.58;;;20.40;99.90;;;;;;5053205;28;20028;-79
2021/09/15 08:12:58;;;;;;;5.35;3.25;;;20.40;99.90;;;;;;5054763;28;20019;-78
2021/09/15 08:15:24;;;;;;;7.10;4.40;;;20.40;99.90;;;;;;5054131;28;20451;-78
2021/09/15 08:17:51;;;;;;;5.85;2.67;;;20.50;99.90;;;;;;5054681;28;20025;-78
2021/09/15 08:20:16;;;;;;;10.00;3.90;;;20.50;99.90;;;;;;5053091;28;20044;-79
2021/09/15 08:22:42;;;;;;;7.57;3.47;;;20.50;99.90;;;;;;5052883;28;20079;-78
2021/09/15 08:25:08;;;;;;;9.68;3.28;;;20.50;99.90;;;;;;5057442;28;20487;-78
2021/09/15 08:27:34;;;;;;;4.63;3.15;;;20.50;99.90;;;;;;5054303;28;20056;-77
2021/09/15 08:29:59;;;;;;;6.60;3.33;;;20.50;99.90;;;;;;5052999;28;20025;-78
2021/09/15 08:32:25;;;;;;;4.65;3.28;;;20.40;99.90;;;;;;5056053;28;20029;-78
2021/09/15 08:34:50;;;;;;;4.43;3.25;;;20.40;99.90;;;;;;5052563;28;20484;-78
2021/09/15 08:37:16;;;;;;;4.30;3.35;;;20.50;99.90;;;;;;5057049;28;20021;-79
2021/09/15 08:39:41;;;;;;;4.88;3.40;;;20.50;99.90;;;;;;5053490;28;20063;-78
2021/09/15 08:42:08;;;;;;;4.82;3.25;;;20.60;99.90;;;;;;5051431;28;20025;-78
2021/09/15 08:44:33;;;;;;;4.50;3.30;;;20.60;99.90;;;;;;5052209;28;20025;-78
2021/09/15 08:47:00;;;;;;;5.85;3.40;;;20.70;99.90;;;;;;5058706;28;20029;-78
2021/09/15 08:49:29;;;;;;;4.50;3.50;;;20.70;99.90;;;;;;5053462;28;20115;-78
2021/09/15 08:51:55;;;;;;;5.70;3.70;;;20.80;99.90;;;;;;5051759;28;20025;-78
2021/09/15 08:54:20;;;;;;;5.18;3.67;;;20.80;99.90;;;;;;5053793;28;20021;-77
2021/09/15 08:56:46;;;;;;;4.70;3.33;;;20.70;99.90;;;;;;5053292;28;20033;-78
2021/09/15 08:59:11;;;;;;;5.78;3.63;;;20.60;99.90;;;;;;5052752;28;20024;-78
2021/09/15 09:01:39;;;;;;;7.57;4.15;;;20.50;99.90;;;;;;5054608;28;20383;-79
2021/09/15 09:04:05;;;;;;;6.00;3.53;;;20.50;99.90;;;;;;5055475;28;20029;-78
2021/09/15 09:06:33;;;;;;;5.78;3.80;;;20.50;99.90;;;;;;5054516;28;20223;-80
2021/09/15 09:09:02;;;;;;;4.28;3.88;;;20.50;99.90;;;;;;5056148;28;20021;-77
2021/09/15 09:11:30;;;;;;;7.63;3.78;;;20.50;99.90;;;;;;5053420;28;20017;-78
2021/09/15 09:13:59;;;;;;;6.13;3.47;;;20.40;99.90;;;;;;5052465;28;20017;-78
2021/09/15 09:16:44;;;;;;;5.88;3.50;;;20.50;99.90;;;;;;5050517;28;20025;-78
2021/09/15 09:19:12;;;;;;;8.25;3.75;;;20.50;99.90;;;;;;5052344;28;20029;-78
2021/09/15 09:21:40;;;;;;;4.85;3.38;;;20.50;99.90;;;;;;5053463;28;20021;-79
2021/09/15 09:24:09;;;;;;;6.40;3.47;;;20.40;99.90;;;;;;5053901;28;20021;-77
2021/09/15 09:26:56;;;;;;;7.67;3.73;;;20.50;99.90;;;;;;5014162;28;1040185;-77
2021/09/15 09:29:26;;;;;;;4.97;3.83;;;20.50;99.90;;;;;;5052951;28;20396;-79
2021/09/15 09:31:59;;;;;;;4.45;3.30;;;20.40;99.90;;;;;;5053946;28;20028;-78
2021/09/15 09:34:25;;;;;;;3.40;2.92;;;20.40;99.90;;;;;;5057825;28;20494;-79
2021/09/15 09:36:58;;;;;;;8.18;5.70;;;20.40;99.90;;;;;;5052351;28;20033;-77
2021/09/15 09:39:40;;;;;;;8.98;4.25;;;20.30;99.90;;;;;;5052211;28;20116;-79
2021/09/15 09:42:24;;;;;;;7.40;3.15;;;20.20;99.90;;;;;;5052486;28;20029;-77
2021/09/15 09:45:05;;;;;;;6.65;3.00;;;20.10;99.90;;;;;;5053600;28;20114;-77
2021/09/15 09:47:32;;;;;;;5.13;3.40;;;20.20;99.90;;;;;;5053161;28;20426;-78
2021/09/15 09:50:05;;;;;;;6.97;4.40;;;20.20;99.90;;;;;;5052408;28;20025;-77
2021/09/15 09:52:31;;;;;;;6.10;2.88;;;20.20;99.90;;;;;;5055459;28;20017;-79
2021/09/15 09:55:01;;;;;;;4.55;2.97;;;20.30;99.90;;;;;;5057030;28;20037;-78
2021/09/15 09:57:27;;;;;;;4.28;3.13;;;20.40;99.90;;;;;;5054091;28;20501;-79
2021/09/15 09:59:54;;;;;;;4.35;3.00;;;20.50;99.90;;;;;;5053567;28;20049;-78
2021/09/15 10:02:20;;;;;;;4.55;3.17;;;20.60;99.90;;;;;;5053485;28;20036;-79
2021/09/15 10:04:47;;;;;;;4.80;2.75;;;20.70;99.90;;;;;;5054453;28;20053;-78
2021/09/15 10:07:14;;;;;;;5.22;2.65;;;20.80;99.90;;;;;;5054463;28;20511;-78
2021/09/15 10:09:42;;;;;;;5.38;3.22;;;21.00;99.90;;;;;;5053685;28;20181;-78
2021/09/15 10:12:08;;;;;;;5.82;3.40;;;21.00;99.90;;;;;;5057209;28;20021;-79
2021/09/15 10:14:34;;;;;;;5.38;3.35;;;21.20;99.90;;;;;;5053816;28;20539;-78
2021/09/15 10:17:07;;;;;;;3.78;3.28;;;21.30;99.90;;;;;;5058072;28;20034;-78
2021/09/15 10:19:39;;;;;;;5.18;2.72;;;21.40;99.90;;;;;;5073826;28;20028;-78
2021/09/15 10:22:06;;;;;;;4.95;3.13;;;21.60;99.90;;;;;;5075352;28;20441;-78
2021/09/15 10:24:51;;;;;;;6.00;3.50;;;21.70;99.90;;;;;;5074354;28;20029;-78
2021/09/15 10:27:19;;;;;;;6.10;4.13;;;21.80;99.90;;;;;;5071561;28;20095;-78
2021/09/15 10:30:00;;;;;;;5.05;2.90;;;21.80;99.90;;;;;;5055665;28;20025;-77
2021/09/15 10:32:33;;;;;;;3.17;2.50;;;21.80;99.90;;;;;;5053761;28;20396;-79
2021/09/15 10:35:00;;;;;;;3.90;3.22;;;22.00;99.90;;;;;;5054898;28;20033;-79
2021/09/15 10:37:29;;;;;;;4.90;3.22;;;22.00;99.90;;;;;;5054802;28;20104;-78
2021/09/15 10:40:02;;;;;;;7.45;2.97;;;21.90;99.90;;;;;;5055190;28;20025;-76
2021/09/15 10:42:34;;;;;;;3.50;3.20;;;21.90;99.90;;;;;;5055165;28;20036;-78
2021/09/15 10:45:24;;;;;;;4.15;3.40;;;22.00;99.90;;;;;;5055055;28;20025;-77
2021/09/15 10:47:53;;;;;;;4.75;2.75;;;22.10;99.90;;;;;;5055300;28;20443;-78
2021/09/15 10:50:42;;;;;;;5.38;2.97;;;22.10;99.90;;;;;;5053242;28;20029;-78
2021/09/15 10:53:07;;;;;;;5.32;3.72;;;22.10;99.90;;;;;;5056309;28;20079;-78
2021/09/15 10:55:45;;;;;;;4.20;3.35;;;22.00;99.90;;;;;;5055944;28;20481;-78
2021/09/15 10:58:16;;;;;;;4.07;2.90;;;21.90;99.90;;;;;;5054801;28;20071;-78
2021/09/15 11:01:01;;;;;;;5.45;3.30;;;22.00;99.90;;;;;;5055382;28;20500;-77
2021/09/15 11:03:33;;;;;;;4.70;3.00;;;21.90;99.90;;;;;;5055970;28;20025;-77
2021/09/15 11:06:20;;;;;;;4.88;3.03;;;21.80;99.90;;;;;;5055656;28;20055;-78
2021/09/15 11:08:53;;;;;;;5.20;3.13;;;21.70;99.90;;;;;;5058890;28;20101;-77
2021/09/15 11:11:22;;;;;;;5.75;3.05;;;21.80;99.90;;;;;;5056197;28;20396;-78
2021/09/15 11:13:57;;;;;;;4.05;3.10;;;22.00;99.90;;;;;;5054426;28;20067;-78
2021/09/15 11:16:25;;;;;;;5.55;3.35;;;22.20;99.90;;;;;;5056931;28;20074;-78
2021/09/15 11:18:56;;;;;;;3.80;2.92;;;22.60;99.90;;;;;;5055415;28;20025;-77
2021/09/15 11:21:23;;;;;;;9.32;3.15;;;22.40;99.90;;;;;;5055357;28;20032;-78
2021/09/15 11:23:57;;;;;;;3.00;2.63;;;22.40;99.90;;;;;;5056591;28;20103;-77
2021/09/15 11:26:41;;;;;;;5.07;3.42;;;22.60;99.90;;;;;;5057428;28;20059;-79
2021/09/15 11:29:07;;;;;;;4.43;3.53;;;22.60;99.90;;;;;;5057322;28;20074;-77
2021/09/15 11:31:37;;;;;;;5.40;2.67;;;22.60;99.90;;;;;;5056976;28;20104;-79
2021/09/15 11:34:14;;;;;;;4.47;3.40;;;22.70;99.90;;;;;;5055870;28;20040;-78
2021/09/15 11:36:48;;;;;;;8.27;3.45;;;22.60;99.90;;;;;;5056784;28;20283;-79
2021/09/15 11:39:18;;;;;;;6.93;3.75;;;22.70;99.90;;;;;;5057376;28;20029;-80
2021/09/15 11:41:43;;;;;;;5.97;3.35;;;22.80;99.90;;;;;;5056230;28;20029;-78
2021/09/15 11:44:09;;;;;;;3.25;2.95;;;22.80;99.90;;;;;;5056066;28;20031;-79
2021/09/15 11:46:37;;;;;;;3.42;2.90;;;22.90;99.90;;;;;;5055801;28;20032;-79
2021/09/15 11:49:06;;;;;;;3.85;2.70;;;22.80;99.90;;;;;;5055519;28;20031;-78
2021/09/15 11:51:36;;;;;;;4.00;3.10;;;22.70;99.90;;;;;;5054765;28;20028;-78
2021/09/15 11:54:15;;;;;;;7.40;4.03;;;22.60;99.90;;;;;;5055313;28;20027;-78
2021/09/15 11:56:52;;;;;;;3.10;2.90;;;22.40;99.90;;;;;;5056303;28;20052;-79
2021/09/15 11:59:22;;;;;;;5.47;2.97;;;22.30;99.90;;;;;;5055298;28;20056;-79
2021/09/15 12:01:48;;;;;;;5.35;4.07;;;22.40;99.90;;;;;;5054854;28;20488;-78
2021/09/15 12:04:19;;;;;;;7.22;3.25;;;22.10;99.90;;;;;;5056225;28;20033;-79
2021/09/15 12:06:45;;;;;;;;;;;22.10;99.90;;;;;;5055104;28;20021;-77
2021/09/15 12:09:11;;;;;;;3.20;2.90;;;22.10;99.90;;;;;;5054200;28;20318;-78
2021/09/15 12:11:41;;;;;;;5.63;3.60;;;22.00;99.90;;;;;;5055900;28;20021;-78
2021/09/15 12:14:09;;;;;;;4.93;3.47;;;22.00;99.90;;;;;;5054283;28;20025;-77
2021/09/15 12:16:40;;;;;;;5.20;3.83;;;22.00;99.90;;;;;;5053756;28;20410;-78
2021/09/15 12:19:17;;;;;;;4.35;3.08;;;22.00;99.90;;;;;;5086515;28;20441;-78
2021/09/15 12:21:46;;;;;;;6.68;3.97;;;22.00;99.90;;;;;;5086051;28;20515;-78
2021/09/15 12:24:12;;;;;;;8.40;4.70;;;22.00;99.90;;;;;;5060482;28;20415;-78
2021/09/15 12:26:38;;;;;;;6.50;3.38;;;22.00;99.90;;;;;;5073666;28;20048;-78
2021/09/15 12:29:08;;;;;;;7.35;3.30;;;22.00;99.90;;;;;;5054416;28;20025;-78
2021/09/15 12:31:47;;;;;;;7.22;3.90;;;22.00;99.90;;;;;;5053116;28;20056;-79
2021/09/15 12:34:34;;;;;;;4.25;3.33;;;21.90;99.90;;;;;;5055554;28;20059;-77
2021/09/15 12:37:12;;;;;;;5.13;3.08;;;22.00;99.90;;;;;;5074888;28;20092;-78
2021/09/15 12:39:57;;;;;;;4.90;4.15;;;22.00;99.90;;;;;;5072760;28;20578;-78
2021/09/15 12:42:26;;;;;;;3.72;3.30;;;22.10;99.90;;;;;;5055380;28;20037;-78
2021/09/15 12:45:12;;;;;;;5.32;3.55;;;22.10;99.90;;;;;;5053828;28;20086;-78
2021/09/15 12:47:43;;;;;;;4.82;3.67;;;22.20;99.90;;;;;;5054207;28;20051;-78
2021/09/15 12:50:17;;;;;;;4.13;3.35;;;22.30;99.90;;;;;;5054234;28;20028;-78
2021/09/15 12:52:44;;;;;;;5.57;3.25;;;22.20;99.90;;;;;;5052951;28;20021;-77